sensor_id;sensor_type;location;lat;lon;timestamp;temperature;humidity
32348;DHT22;18821;44.800;10.326;2022-11-15T00:00:10;9.00;99.90
32348;DHT22;18821;44.800;10.326;2022-11-15T00:02:55;9.00;99.90
32348;DHT22;18821;44.800;10.326;2022-11-15T00:05:40;9.00;99.90
32348;DHT22;18821;44.800;10.326;2022-11-15T00:08:24;8.90;99.90
32348;DHT22;18821;44.800;10.326;2022-11-15T00:11:11;8.90;99.90
32348;DHT22;18821;44.800;10.326;2022-11-15T00:13:57;8.90;99.90
32348;DHT22;18821;44.800;10.326;2022-11-15T00:16:43;8.90;99.90
32348;DHT22;18821;44.800;10.326;2022-11-15T00:19:28;8.90;99.90
32348;DHT22;18821;44.800;10.326;2022-11-15T00:22:13;8.90;99.90
32348;DHT22;18821;44.800;10.326;2022-11-15T00:24:58;8.90;99.90
32348;DHT22;18821;44.800;10.326;2022-11-15T00:27:43;8.90;99.90
32348;DHT22;18821;44.800;10.326;2022-11-15T00:30:29;8.80;99.90
32348;DHT22;18821;44.800;10.326;2022-11-15T00:33:13;8.80;99.90
32348;DHT22;18821;44.800;10.326;2022-11-15T00:36:16;8.70;99.90
32348;DHT22;18821;44.800;10.326;2022-11-15T00:39:02;8.70;99.90
32348;DHT22;18821;44.800;10.326;2022-11-15T00:41:47;8.70;99.90
32348;DHT22;18821;44.800;10.326;2022-11-15T00:44:31;8.70;99.90
32348;DHT22;18821;44.800;10.326;2022-11-15T00:47:17;8.70;99.90
32348;DHT22;18821;44.800;10.326;2022-11-15T00:50:01;8.70;99.90
32348;DHT22;18821;44.800;10.326;2022-11-15T00:52:46;8.70;99.90
32348;DHT22;18821;44.800;10.326;2022-11-15T00:55:32;8.70;99.90
32348;DHT22;18821;44.800;10.326;2022-11-15T00:58:16;8.70;99.90
32348;DHT22;18821;44.800;10.326;2022-11-15T01:01:12;8.70;99.90
32348;DHT22;18821;44.800;10.326;2022-11-15T01:03:57;8.70;99.90
32348;DHT22;18821;44.800;10.326;2022-11-15T01:06:42;8.70;99.90
32348;DHT22;18821;44.800;10.326;2022-11-15T01:09:28;8.70;99.90
32348;DHT22;18821;44.800;10.326;2022-11-15T01:12:12;8.70;99.90
32348;DHT22;18821;44.800;10.326;2022-11-15T01:14:57;8.70;99.90
32348;DHT22;18821;44.800;10.326;2022-11-15T01:17:42;8.70;99.90
32348;DHT22;18821;44.800;10.326;2022-11-15T01:20:26;8.70;99.90
32348;DHT22;18821;44.800;10.326;2022-11-15T01:23:11;8.80;99.90
32348;DHT22;18821;44.800;10.326;2022-11-15T01:26:02;8.80;99.90
32348;DHT22;18821;44.800;10.326;2022-11-15T01:28:46;8.80;99.90
32348;DHT22;18821;44.800;10.326;2022-11-15T01:31:31;8.80;99.90
32348;DHT22;18821;44.800;10.326;2022-11-15T01:34:16;8.90;99.90
32348;DHT22;18821;44.800;10.326;2022-11-15T01:37:00;8.90;99.90
32348;DHT22;18821;44.800;10.326;2022-11-15T01:39:45;8.80;99.90
32348;DHT22;18821;44.800;10.326;2022-11-15T01:42:29;8.80;99.90
32348;DHT22;18821;44.800;10.326;2022-11-15T01:45:15;8.80;99.90
32348;DHT22;18821;44.800;10.326;2022-11-15T01:47:59;8.80;99.90
32348;DHT22;18821;44.800;10.326;2022-11-15T01:50:44;8.80;99.90
32348;DHT22;18821;44.800;10.326;2022-11-15T01:53:30;8.80;99.90
32348;DHT22;18821;44.800;10.326;2022-11-15T01:56:19;8.80;99.90
32348;DHT22;18821;44.800;10.326;2022-11-15T01:59:05;8.80;99.90
32348;DHT22;18821;44.800;10.326;2022-11-15T02:01:52;8.80;99.90
32348;DHT22;18821;44.800;10.326;2022-11-15T02:04:45;8.80;99.90
32348;DHT22;18821;44.800;10.326;2022-11-15T02:07:32;8.80;99.90
32348;DHT22;18821;44.800;10.326;2022-11-15T02:10:20;8.80;99.90
32348;DHT22;18821;44.800;10.326;2022-11-15T02:13:05;8.80;99.90
32348;DHT22;18821;44.800;10.326;2022-11-15T02:29:11;8.90;99.90
32348;DHT22;18821;44.800;10.326;2022-11-15T02:32:11;8.90;99.90
32348;DHT22;18821;44.800;10.326;2022-11-15T02:38:26;8.90;99.90
32348;DHT22;18821;44.800;10.326;2022-11-15T02:41:19;8.90;99.90
32348;DHT22;18821;44.800;10.326;2022-11-15T02:44:18;9.00;99.90
32348;DHT22;18821;44.800;10.326;2022-11-15T02:47:12;9.00;99.90
32348;DHT22;18821;44.800;10.326;2022-11-15T02:50:08;9.00;99.90
32348;DHT22;18821;44.800;10.326;2022-11-15T02:52:53;9.00;99.90
32348;DHT22;18821;44.800;10.326;2022-11-15T02:55:41;8.90;99.90
32348;DHT22;18821;44.800;10.326;2022-11-15T02:58:50;8.90;99.90
32348;DHT22;18821;44.800;10.326;2022-11-15T03:01:40;8.90;99.90
32348;DHT22;18821;44.800;10.326;2022-11-15T03:04:56;8.90;99.90
32348;DHT22;18821;44.800;10.326;2022-11-15T03:08:05;8.90;99.90
32348;DHT22;18821;44.800;10.326;2022-11-15T03:19:53;9.20;99.90
32348;DHT22;18821;44.800;10.326;2022-11-15T03:22:43;9.20;99.90
32348;DHT22;18821;44.800;10.326;2022-11-15T03:25:29;9.20;99.90
32348;DHT22;18821;44.800;10.326;2022-11-15T03:28:25;9.20;99.90
32348;DHT22;18821;44.800;10.326;2022-11-15T03:31:13;9.20;99.90
32348;DHT22;18821;44.800;10.326;2022-11-15T03:34:32;9.20;99.90
32348;DHT22;18821;44.800;10.326;2022-11-15T03:37:21;9.30;99.90
32348;DHT22;18821;44.800;10.326;2022-11-15T03:40:06;9.30;99.90
32348;DHT22;18821;44.800;10.326;2022-11-15T03:46:03;9.30;99.90
32348;DHT22;18821;44.800;10.326;2022-11-15T03:48:52;9.40;99.90
32348;DHT22;18821;44.800;10.326;2022-11-15T03:51:38;9.50;99.90
32348;DHT22;18821;44.800;10.326;2022-11-15T03:54:23;9.50;99.90
32348;DHT22;18821;44.800;10.326;2022-11-15T03:57:08;9.50;99.90
32348;DHT22;18821;44.800;10.326;2022-11-15T03:59:53;9.50;99.90
32348;DHT22;18821;44.800;10.326;2022-11-15T04:02:38;9.50;99.90
32348;DHT22;18821;44.800;10.326;2022-11-15T04:05:22;9.60;99.90
32348;DHT22;18821;44.800;10.326;2022-11-15T04:08:06;9.50;99.90
32348;DHT22;18821;44.800;10.326;2022-11-15T04:10:51;9.50;99.90
32348;DHT22;18821;44.800;10.326;2022-11-15T04:13:35;9.50;99.90
32348;DHT22;18821;44.800;10.326;2022-11-15T04:16:19;9.60;99.90
32348;DHT22;18821;44.800;10.326;2022-11-15T04:19:04;9.60;99.90
32348;DHT22;18821;44.800;10.326;2022-11-15T04:22:07;9.60;99.90
32348;DHT22;18821;44.800;10.326;2022-11-15T04:25:11;9.60;99.90
32348;DHT22;18821;44.800;10.326;2022-11-15T04:27:55;9.60;99.90
32348;DHT22;18821;44.800;10.326;2022-11-15T04:30:40;9.60;99.90
32348;DHT22;18821;44.800;10.326;2022-11-15T04:33:25;9.70;99.90
32348;DHT22;18821;44.800;10.326;2022-11-15T04:36:09;9.70;99.90
32348;DHT22;18821;44.800;10.326;2022-11-15T04:39:13;9.70;99.90
32348;DHT22;18821;44.800;10.326;2022-11-15T04:41:57;9.80;99.90
32348;DHT22;18821;44.800;10.326;2022-11-15T04:44:42;9.80;99.90
32348;DHT22;18821;44.800;10.326;2022-11-15T04:47:27;9.80;99.90
32348;DHT22;18821;44.800;10.326;2022-11-15T04:50:12;9.80;99.90
32348;DHT22;18821;44.800;10.326;2022-11-15T04:52:57;9.80;99.90
32348;DHT22;18821;44.800;10.326;2022-11-15T04:55:45;9.80;99.90
32348;DHT22;18821;44.800;10.326;2022-11-15T04:58:30;9.80;99.90
32348;DHT22;18821;44.800;10.326;2022-11-15T05:01:14;9.80;99.90
32348;DHT22;18821;44.800;10.326;2022-11-15T05:03:58;9.70;99.90
32348;DHT22;18821;44.800;10.326;2022-11-15T05:07:02;9.80;99.90
32348;DHT22;18821;44.800;10.326;2022-11-15T05:09:48;9.80;99.90
32348;DHT22;18821;44.800;10.326;2022-11-15T05:12:32;9.80;99.90
32348;DHT22;18821;44.800;10.326;2022-11-15T05:15:17;9.80;99.90
32348;DHT22;18821;44.800;10.326;2022-11-15T05:18:01;9.80;99.90
32348;DHT22;18821;44.800;10.326;2022-11-15T05:20:46;9.90;99.90
32348;DHT22;18821;44.800;10.326;2022-11-15T05:23:30;9.80;99.90
32348;DHT22;18821;44.800;10.326;2022-11-15T05:26:16;9.80;99.90
32348;DHT22;18821;44.800;10.326;2022-11-15T05:29:01;9.80;99.90
32348;DHT22;18821;44.800;10.326;2022-11-15T05:31:46;9.80;99.90
32348;DHT22;18821;44.800;10.326;2022-11-15T05:34:30;9.80;99.90
32348;DHT22;18821;44.800;10.326;2022-11-15T05:37:16;9.80;99.90
32348;DHT22;18821;44.800;10.326;2022-11-15T05:40:01;9.80;99.90
32348;DHT22;18821;44.800;10.326;2022-11-15T05:42:45;9.80;99.90
32348;DHT22;18821;44.800;10.326;2022-11-15T05:45:31;9.90;99.90
32348;DHT22;18821;44.800;10.326;2022-11-15T05:48:16;9.90;99.90
32348;DHT22;18821;44.800;10.326;2022-11-15T05:51:02;9.90;99.90
32348;DHT22;18821;44.800;10.326;2022-11-15T05:53:48;9.90;99.90
32348;DHT22;18821;44.800;10.326;2022-11-15T05:56:33;10.00;99.90
32348;DHT22;18821;44.800;10.326;2022-11-15T05:59:18;9.90;99.90
32348;DHT22;18821;44.800;10.326;2022-11-15T06:02:03;9.90;99.90
32348;DHT22;18821;44.800;10.326;2022-11-15T06:04:48;9.90;99.90
32348;DHT22;18821;44.800;10.326;2022-11-15T06:07:32;9.90;99.90
32348;DHT22;18821;44.800;10.326;2022-11-15T06:10:17;9.90;99.90
32348;DHT22;18821;44.800;10.326;2022-11-15T06:13:03;9.90;99.90
32348;DHT22;18821;44.800;10.326;2022-11-15T06:15:49;9.90;99.90
32348;DHT22;18821;44.800;10.326;2022-11-15T06:18:33;9.90;99.90
32348;DHT22;18821;44.800;10.326;2022-11-15T06:21:18;9.90;99.90
32348;DHT22;18821;44.800;10.326;2022-11-15T06:24:02;9.90;99.90
32348;DHT22;18821;44.800;10.326;2022-11-15T06:26:47;10.00;99.90
32348;DHT22;18821;44.800;10.326;2022-11-15T06:29:31;10.00;99.90
32348;DHT22;18821;44.800;10.326;2022-11-15T06:32:15;10.10;99.90
32348;DHT22;18821;44.800;10.326;2022-11-15T06:35:00;10.00;99.90
32348;DHT22;18821;44.800;10.326;2022-11-15T06:37:45;10.00;99.90
32348;DHT22;18821;44.800;10.326;2022-11-15T06:40:29;9.90;99.90
32348;DHT22;18821;44.800;10.326;2022-11-15T06:43:14;10.00;99.90
32348;DHT22;18821;44.800;10.326;2022-11-15T06:46:00;10.00;99.90
32348;DHT22;18821;44.800;10.326;2022-11-15T06:48:45;10.00;99.90
32348;DHT22;18821;44.800;10.326;2022-11-15T06:51:29;10.10;99.90
32348;DHT22;18821;44.800;10.326;2022-11-15T06:54:14;10.00;99.90
32348;DHT22;18821;44.800;10.326;2022-11-15T06:56:58;10.10;99.90
32348;DHT22;18821;44.800;10.326;2022-11-15T06:59:44;10.00;99.90
32348;DHT22;18821;44.800;10.326;2022-11-15T07:02:29;10.00;99.90
32348;DHT22;18821;44.800;10.326;2022-11-15T07:05:14;10.00;99.90
32348;DHT22;18821;44.800;10.326;2022-11-15T07:07:59;10.00;99.90
32348;DHT22;18821;44.800;10.326;2022-11-15T07:10:43;10.00;99.90
32348;DHT22;18821;44.800;10.326;2022-11-15T07:13:29;10.00;99.90
32348;DHT22;18821;44.800;10.326;2022-11-15T07:16:17;10.10;99.90
32348;DHT22;18821;44.800;10.326;2022-11-15T07:19:01;10.10;99.90
32348;DHT22;18821;44.800;10.326;2022-11-15T07:21:45;10.10;99.90
32348;DHT22;18821;44.800;10.326;2022-11-15T07:24:30;10.10;99.90
32348;DHT22;18821;44.800;10.326;2022-11-15T07:27:15;10.10;99.90
32348;DHT22;18821;44.800;10.326;2022-11-15T07:29:59;10.10;99.90
32348;DHT22;18821;44.800;10.326;2022-11-15T07:32:44;10.10;99.90
32348;DHT22;18821;44.800;10.326;2022-11-15T07:35:29;10.20;99.90
32348;DHT22;18821;44.800;10.326;2022-11-15T07:38:14;10.20;99.90
32348;DHT22;18821;44.800;10.326;2022-11-15T07:41:05;10.20;99.90
32348;DHT22;18821;44.800;10.326;2022-11-15T07:43:53;10.20;99.90
32348;DHT22;18821;44.800;10.326;2022-11-15T07:46:38;10.20;99.90
32348;DHT22;18821;44.800;10.326;2022-11-15T07:49:23;10.30;99.90
32348;DHT22;18821;44.800;10.326;2022-11-15T07:52:08;10.40;99.90
32348;DHT22;18821;44.800;10.326;2022-11-15T07:54:53;10.50;99.90
32348;DHT22;18821;44.800;10.326;2022-11-15T07:57:37;10.60;99.90
32348;DHT22;18821;44.800;10.326;2022-11-15T08:00:22;10.70;99.90
32348;DHT22;18821;44.800;10.326;2022-11-15T08:03:09;10.70;99.90
32348;DHT22;18821;44.800;10.326;2022-11-15T08:05:54;10.80;99.90
32348;DHT22;18821;44.800;10.326;2022-11-15T08:08:38;10.80;99.90
32348;DHT22;18821;44.800;10.326;2022-11-15T08:11:23;10.90;99.90
32348;DHT22;18821;44.800;10.326;2022-11-15T08:14:07;10.80;99.90
32348;DHT22;18821;44.800;10.326;2022-11-15T08:16:52;10.70;99.90
32348;DHT22;18821;44.800;10.326;2022-11-15T08:19:36;10.70;99.90
32348;DHT22;18821;44.800;10.326;2022-11-15T08:22:21;10.70;99.90
32348;DHT22;18821;44.800;10.326;2022-11-15T08:25:06;10.70;99.90
32348;DHT22;18821;44.800;10.326;2022-11-15T08:27:54;10.70;99.90
32348;DHT22;18821;44.800;10.326;2022-11-15T08:30:40;10.70;99.90
32348;DHT22;18821;44.800;10.326;2022-11-15T08:33:26;10.70;99.90
32348;DHT22;18821;44.800;10.326;2022-11-15T08:36:15;10.80;99.90
32348;DHT22;18821;44.800;10.326;2022-11-15T08:39:00;10.70;99.90
32348;DHT22;18821;44.800;10.326;2022-11-15T08:41:45;10.70;99.90
32348;DHT22;18821;44.800;10.326;2022-11-15T08:44:29;10.70;99.90
32348;DHT22;18821;44.800;10.326;2022-11-15T08:47:14;10.70;99.90
32348;DHT22;18821;44.800;10.326;2022-11-15T08:49:58;10.80;99.90
32348;DHT22;18821;44.800;10.326;2022-11-15T08:52:43;10.80;99.90
32348;DHT22;18821;44.800;10.326;2022-11-15T08:55:27;10.80;99.90
32348;DHT22;18821;44.800;10.326;2022-11-15T08:58:12;10.70;99.90
32348;DHT22;18821;44.800;10.326;2022-11-15T09:00:56;10.80;99.90
32348;DHT22;18821;44.800;10.326;2022-11-15T09:03:41;10.80;99.90
32348;DHT22;18821;44.800;10.326;2022-11-15T09:06:25;10.80;99.90
32348;DHT22;18821;44.800;10.326;2022-11-15T09:09:10;10.70;99.90
32348;DHT22;18821;44.800;10.326;2022-11-15T09:11:56;10.70;99.90
32348;DHT22;18821;44.800;10.326;2022-11-15T09:14:40;10.60;99.90
32348;DHT22;18821;44.800;10.326;2022-11-15T09:17:25;10.60;99.90
32348;DHT22;18821;44.800;10.326;2022-11-15T09:20:10;10.70;99.90
32348;DHT22;18821;44.800;10.326;2022-11-15T09:22:58;10.60;99.90
32348;DHT22;18821;44.800;10.326;2022-11-15T09:25:43;10.70;99.90
32348;DHT22;18821;44.800;10.326;2022-11-15T09:28:28;10.70;99.90
32348;DHT22;18821;44.800;10.326;2022-11-15T09:31:13;10.70;99.90
32348;DHT22;18821;44.800;10.326;2022-11-15T09:33:58;10.80;99.90
32348;DHT22;18821;44.800;10.326;2022-11-15T09:36:42;10.80;99.90
32348;DHT22;18821;44.800;10.326;2022-11-15T09:39:27;10.80;99.90
32348;DHT22;18821;44.800;10.326;2022-11-15T09:45:35;10.90;99.90
32348;DHT22;18821;44.800;10.326;2022-11-15T09:48:56;10.90;99.90
32348;DHT22;18821;44.800;10.326;2022-11-15T09:51:54;10.90;99.90
32348;DHT22;18821;44.800;10.326;2022-11-15T09:56:56;11.00;99.90
32348;DHT22;18821;44.800;10.326;2022-11-15T10:04:26;11.10;99.90
32348;DHT22;18821;44.800;10.326;2022-11-15T10:12:13;11.20;99.90
32348;DHT22;18821;44.800;10.326;2022-11-15T10:14:39;11.10;99.90
32348;DHT22;18821;44.800;10.326;2022-11-15T10:20:23;10.80;99.90
32348;DHT22;18821;44.800;10.326;2022-11-15T10:23:05;10.90;99.90
32348;DHT22;18821;44.800;10.326;2022-11-15T10:25:33;10.90;99.90
32348;DHT22;18821;44.800;10.326;2022-11-15T10:30:46;10.90;99.90
32348;DHT22;18821;44.800;10.326;2022-11-15T10:38:52;11.00;99.90
32348;DHT22;18821;44.800;10.326;2022-11-15T10:41:21;11.00;99.90
32348;DHT22;18821;44.800;10.326;2022-11-15T10:44:07;11.00;99.90
32348;DHT22;18821;44.800;10.326;2022-11-15T10:46:38;11.10;99.90
32348;DHT22;18821;44.800;10.326;2022-11-15T10:52:13;11.00;99.90
32348;DHT22;18821;44.800;10.326;2022-11-15T10:57:28;11.10;99.90
32348;DHT22;18821;44.800;10.326;2022-11-15T11:04:59;10.80;99.90
32348;DHT22;18821;44.800;10.326;2022-11-15T11:07:29;10.80;99.90
32348;DHT22;18821;44.800;10.326;2022-11-15T11:10:21;10.70;99.90
32348;DHT22;18821;44.800;10.326;2022-11-15T11:12:47;10.80;99.90
32348;DHT22;18821;44.800;10.326;2022-11-15T11:15:15;10.70;99.90
32348;DHT22;18821;44.800;10.326;2022-11-15T11:26:09;10.90;99.90
32348;DHT22;18821;44.800;10.326;2022-11-15T11:31:32;10.40;99.90
32348;DHT22;18821;44.800;10.326;2022-11-15T11:36:57;10.60;99.90
32348;DHT22;18821;44.800;10.326;2022-11-15T11:40:14;10.50;99.90
32348;DHT22;18821;44.800;10.326;2022-11-15T11:50:30;10.60;99.90
32348;DHT22;18821;44.800;10.326;2022-11-15T11:53:22;10.50;99.90
32348;DHT22;18821;44.800;10.326;2022-11-15T11:56:02;10.50;99.90
32348;DHT22;18821;44.800;10.326;2022-11-15T11:58:36;10.40;99.90
32348;DHT22;18821;44.800;10.326;2022-11-15T12:01:27;10.50;99.90
32348;DHT22;18821;44.800;10.326;2022-11-15T12:04:11;10.50;99.90
32348;DHT22;18821;44.800;10.326;2022-11-15T12:09:35;10.50;99.90
32348;DHT22;18821;44.800;10.326;2022-11-15T12:12:19;10.60;99.90
32348;DHT22;18821;44.800;10.326;2022-11-15T12:17:37;10.50;99.90
32348;DHT22;18821;44.800;10.326;2022-11-15T12:20:17;10.50;99.90
32348;DHT22;18821;44.800;10.326;2022-11-15T12:22:53;10.40;99.90
32348;DHT22;18821;44.800;10.326;2022-11-15T12:28:41;10.60;99.90
32348;DHT22;18821;44.800;10.326;2022-11-15T12:31:15;10.70;99.90
32348;DHT22;18821;44.800;10.326;2022-11-15T12:33:45;10.70;99.90
32348;DHT22;18821;44.800;10.326;2022-11-15T12:36:34;10.60;99.90
32348;DHT22;18821;44.800;10.326;2022-11-15T12:39:09;10.60;99.90
32348;DHT22;18821;44.800;10.326;2022-11-15T12:59:55;10.50;99.90
32348;DHT22;18821;44.800;10.326;2022-11-15T13:02:26;10.40;99.90
32348;DHT22;18821;44.800;10.326;2022-11-15T13:04:54;10.50;99.90
32348;DHT22;18821;44.800;10.326;2022-11-15T13:12:59;10.30;99.90
32348;DHT22;18821;44.800;10.326;2022-11-15T13:15:52;10.30;99.90
32348;DHT22;18821;44.800;10.326;2022-11-15T13:18:35;10.30;99.90
32348;DHT22;18821;44.800;10.326;2022-11-15T13:21:04;10.30;99.90
32348;DHT22;18821;44.800;10.326;2022-11-15T13:23:54;10.30;99.90
32348;DHT22;18821;44.800;10.326;2022-11-15T13:26:21;10.30;99.90
32348;DHT22;18821;44.800;10.326;2022-11-15T13:28:49;10.30;99.90
32348;DHT22;18821;44.800;10.326;2022-11-15T13:31:37;10.30;99.90
32348;DHT22;18821;44.800;10.326;2022-11-15T13:34:25;10.40;99.90
32348;DHT22;18821;44.800;10.326;2022-11-15T13:36:52;10.40;99.90
32348;DHT22;18821;44.800;10.326;2022-11-15T13:39:31;10.40;99.90
32348;DHT22;18821;44.800;10.326;2022-11-15T13:41:58;10.40;99.90
32348;DHT22;18821;44.800;10.326;2022-11-15T13:44:31;10.50;99.90
32348;DHT22;18821;44.800;10.326;2022-11-15T13:47:03;10.30;99.90
32348;DHT22;18821;44.800;10.326;2022-11-15T13:49:31;10.30;99.90
32348;DHT22;18821;44.800;10.326;2022-11-15T13:52:00;10.40;99.90
32348;DHT22;18821;44.800;10.326;2022-11-15T13:57:29;10.40;99.90
32348;DHT22;18821;44.800;10.326;2022-11-15T14:00:19;10.40;99.90
32348;DHT22;18821;44.800;10.326;2022-11-15T14:02:47;10.40;99.90
32348;DHT22;18821;44.800;10.326;2022-11-15T14:05:17;10.40;99.90
32348;DHT22;18821;44.800;10.326;2022-11-15T14:10:40;10.30;99.90
32348;DHT22;18821;44.800;10.326;2022-11-15T14:13:27;10.30;99.90
32348;DHT22;18821;44.800;10.326;2022-11-15T14:15:54;10.20;99.90
32348;DHT22;18821;44.800;10.326;2022-11-15T14:21:12;10.30;99.90
32348;DHT22;18821;44.800;10.326;2022-11-15T14:23:41;10.30;99.90
32348;DHT22;18821;44.800;10.326;2022-11-15T14:26:29;10.20;99.90
32348;DHT22;18821;44.800;10.326;2022-11-15T14:28:57;10.20;99.90
32348;DHT22;18821;44.800;10.326;2022-11-15T14:31:23;10.20;99.90
32348;DHT22;18821;44.800;10.326;2022-11-15T14:33:49;10.30;99.90
32348;DHT22;18821;44.800;10.326;2022-11-15T14:36:17;10.30;99.90
32348;DHT22;18821;44.800;10.326;2022-11-15T14:38:46;10.40;99.90
32348;DHT22;18821;44.800;10.326;2022-11-15T14:41:21;10.40;99.90
32348;DHT22;18821;44.800;10.326;2022-11-15T14:43:47;10.30;99.90
32348;DHT22;18821;44.800;10.326;2022-11-15T14:46:14;10.30;99.90
32348;DHT22;18821;44.800;10.326;2022-11-15T14:48:41;10.30;99.90
32348;DHT22;18821;44.800;10.326;2022-11-15T14:51:16;10.20;99.90
32348;DHT22;18821;44.800;10.326;2022-11-15T14:53:44;10.10;99.90
32348;DHT22;18821;44.800;10.326;2022-11-15T14:56:12;10.10;99.90
32348;DHT22;18821;44.800;10.326;2022-11-15T14:58:38;10.10;99.90
32348;DHT22;18821;44.800;10.326;2022-11-15T15:01:20;10.10;99.90
32348;DHT22;18821;44.800;10.326;2022-11-15T15:03:47;10.10;99.90
32348;DHT22;18821;44.800;10.326;2022-11-15T15:06:13;10.10;99.90
32348;DHT22;18821;44.800;10.326;2022-11-15T15:08:40;10.10;99.90
32348;DHT22;18821;44.800;10.326;2022-11-15T15:11:16;10.10;99.90
32348;DHT22;18821;44.800;10.326;2022-11-15T15:13:44;10.10;99.90
32348;DHT22;18821;44.800;10.326;2022-11-15T15:16:10;10.10;99.90
32348;DHT22;18821;44.800;10.326;2022-11-15T15:18:37;10.20;99.90
32348;DHT22;18821;44.800;10.326;2022-11-15T15:21:20;10.10;99.90
32348;DHT22;18821;44.800;10.326;2022-11-15T15:23:48;10.20;99.90
32348;DHT22;18821;44.800;10.326;2022-11-15T15:26:15;10.20;99.90
32348;DHT22;18821;44.800;10.326;2022-11-15T15:28:42;10.10;99.90
32348;DHT22;18821;44.800;10.326;2022-11-15T15:31:10;10.10;99.90
32348;DHT22;18821;44.800;10.326;2022-11-15T15:33:39;10.00;99.90
32348;DHT22;18821;44.800;10.326;2022-11-15T15:36:14;10.00;99.90
32348;DHT22;18821;44.800;10.326;2022-11-15T15:38:42;10.10;99.90
32348;DHT22;18821;44.800;10.326;2022-11-15T15:41:12;10.10;99.90
32348;DHT22;18821;44.800;10.326;2022-11-15T15:43:39;10.20;99.90
32348;DHT22;18821;44.800;10.326;2022-11-15T15:46:14;10.20;99.90
32348;DHT22;18821;44.800;10.326;2022-11-15T15:48:40;10.30;99.90
32348;DHT22;18821;44.800;10.326;2022-11-15T15:51:07;10.20;99.90
32348;DHT22;18821;44.800;10.326;2022-11-15T15:53:33;10.20;99.90
32348;DHT22;18821;44.800;10.326;2022-11-15T15:55:59;10.20;99.90
32348;DHT22;18821;44.800;10.326;2022-11-15T15:58:25;10.10;99.90
32348;DHT22;18821;44.800;10.326;2022-11-15T16:00:51;10.20;99.90
32348;DHT22;18821;44.800;10.326;2022-11-15T16:03:17;10.20;99.90
32348;DHT22;18821;44.800;10.326;2022-11-15T16:05:44;10.20;99.90
32348;DHT22;18821;44.800;10.326;2022-11-15T16:08:24;10.20;99.90
32348;DHT22;18821;44.800;10.326;2022-11-15T16:10:50;10.20;99.90
32348;DHT22;18821;44.800;10.326;2022-11-15T16:13:16;10.20;99.90
32348;DHT22;18821;44.800;10.326;2022-11-15T16:15:43;10.30;99.90
32348;DHT22;18821;44.800;10.326;2022-11-15T16:18:15;10.30;99.90
32348;DHT22;18821;44.800;10.326;2022-11-15T16:20:47;10.20;99.90
32348;DHT22;18821;44.800;10.326;2022-11-15T16:23:18;10.20;99.90
32348;DHT22;18821;44.800;10.326;2022-11-15T16:25:53;10.10;99.90
32348;DHT22;18821;44.800;10.326;2022-11-15T16:28:23;10.10;99.90
32348;DHT22;18821;44.800;10.326;2022-11-15T16:30:58;10.10;99.90
32348;DHT22;18821;44.800;10.326;2022-11-15T16:33:25;10.20;99.90
32348;DHT22;18821;44.800;10.326;2022-11-15T16:35:52;10.20;99.90
32348;DHT22;18821;44.800;10.326;2022-11-15T16:38:20;10.20;99.90
32348;DHT22;18821;44.800;10.326;2022-11-15T16:40:51;10.20;99.90
32348;DHT22;18821;44.800;10.326;2022-11-15T16:43:17;10.20;99.90
32348;DHT22;18821;44.800;10.326;2022-11-15T16:45:43;10.20;99.90
32348;DHT22;18821;44.800;10.326;2022-11-15T16:48:26;10.20;99.90
32348;DHT22;18821;44.800;10.326;2022-11-15T16:50:59;10.20;99.90
32348;DHT22;18821;44.800;10.326;2022-11-15T16:53:26;10.20;99.90
32348;DHT22;18821;44.800;10.326;2022-11-15T16:55:53;10.10;99.90
32348;DHT22;18821;44.800;10.326;2022-11-15T16:58:20;10.10;99.90
32348;DHT22;18821;44.800;10.326;2022-11-15T17:00:56;10.10;99.90
32348;DHT22;18821;44.800;10.326;2022-11-15T17:03:23;10.10;99.90
32348;DHT22;18821;44.800;10.326;2022-11-15T17:05:49;10.20;99.90
32348;DHT22;18821;44.800;10.326;2022-11-15T17:08:16;10.20;99.90
32348;DHT22;18821;44.800;10.326;2022-11-15T17:10:42;10.20;99.90
32348;DHT22;18821;44.800;10.326;2022-11-15T17:13:11;10.20;99.90
32348;DHT22;18821;44.800;10.326;2022-11-15T17:15:40;10.30;99.90
32348;DHT22;18821;44.800;10.326;2022-11-15T17:18:06;10.20;99.90
32348;DHT22;18821;44.800;10.326;2022-11-15T17:20:32;10.20;99.90
32348;DHT22;18821;44.800;10.326;2022-11-15T17:22:58;10.30;99.90
32348;DHT22;18821;44.800;10.326;2022-11-15T17:25:25;10.30;99.90
32348;DHT22;18821;44.800;10.326;2022-11-15T17:27:52;10.30;99.90
32348;DHT22;18821;44.800;10.326;2022-11-15T17:30:18;10.20;99.90
32348;DHT22;18821;44.800;10.326;2022-11-15T17:32:47;10.20;99.90
32348;DHT22;18821;44.800;10.326;2022-11-15T17:35:14;10.20;99.90
32348;DHT22;18821;44.800;10.326;2022-11-15T17:37:43;10.10;99.90
32348;DHT22;18821;44.800;10.326;2022-11-15T17:40:10;10.10;99.90
32348;DHT22;18821;44.800;10.326;2022-11-15T17:42:38;10.10;99.90
32348;DHT22;18821;44.800;10.326;2022-11-15T17:45:05;10.10;99.90
32348;DHT22;18821;44.800;10.326;2022-11-15T17:47:31;10.10;99.90
32348;DHT22;18821;44.800;10.326;2022-11-15T17:49:57;10.10;99.90
32348;DHT22;18821;44.800;10.326;2022-11-15T17:52:23;10.10;99.90
32348;DHT22;18821;44.800;10.326;2022-11-15T17:54:49;10.10;99.90
32348;DHT22;18821;44.800;10.326;2022-11-15T17:57:16;10.10;99.90
32348;DHT22;18821;44.800;10.326;2022-11-15T17:59:42;10.10;99.90
32348;DHT22;18821;44.800;10.326;2022-11-15T18:02:08;10.20;99.90
32348;DHT22;18821;44.800;10.326;2022-11-15T18:04:34;10.10;99.90
32348;DHT22;18821;44.800;10.326;2022-11-15T18:07:00;10.00;99.90
32348;DHT22;18821;44.800;10.326;2022-11-15T18:09:26;10.00;99.90
32348;DHT22;18821;44.800;10.326;2022-11-15T18:11:54;10.00;99.90
32348;DHT22;18821;44.800;10.326;2022-11-15T18:14:20;10.10;99.90
32348;DHT22;18821;44.800;10.326;2022-11-15T18:16:46;10.10;99.90
32348;DHT22;18821;44.800;10.326;2022-11-15T18:19:12;10.10;99.90
32348;DHT22;18821;44.800;10.326;2022-11-15T18:21:42;10.10;99.90
32348;DHT22;18821;44.800;10.326;2022-11-15T18:24:32;10.10;99.90
32348;DHT22;18821;44.800;10.326;2022-11-15T18:27:01;10.10;99.90
32348;DHT22;18821;44.800;10.326;2022-11-15T18:29:27;10.10;99.90
32348;DHT22;18821;44.800;10.326;2022-11-15T18:31:54;10.00;99.90
32348;DHT22;18821;44.800;10.326;2022-11-15T18:34:22;10.00;99.90
32348;DHT22;18821;44.800;10.326;2022-11-15T18:36:52;10.00;99.90
32348;DHT22;18821;44.800;10.326;2022-11-15T18:39:18;10.10;99.90
32348;DHT22;18821;44.800;10.326;2022-11-15T18:41:46;10.20;99.90
32348;DHT22;18821;44.800;10.326;2022-11-15T18:44:12;10.20;99.90
32348;DHT22;18821;44.800;10.326;2022-11-15T18:46:38;10.20;99.90